Time;durP1;ratioP1;P1;durP2;ratioP2;P2;SDS_P1;SDS_P2;PMS_P1;PMS_P2;Temp;Humidity;BMP_temperature;BMP_pressure;BME280_temperature;BME280_humidity;BME280_pressure;Samples;Min_cycle;Max_cycle;Signal;HPM_P1;HPM_P2
2021/12/06 00:02:22;;;;;;;221.20;108.97;;;2.90;99.90;;;;;;10114132;29;20123;-87
2021/12/06 00:07:24;;;;;;;207.70;102.80;;;2.90;99.90;;;;;;10114621;29;20037;-87
2021/12/06 00:12:25;;;;;;;213.33;104.47;;;2.90;99.90;;;;;;10130790;29;20024;-87
2021/12/06 00:17:26;;;;;;;231.27;113.67;;;2.90;99.90;;;;;;10130925;29;20032;-87
2021/12/06 00:22:27;;;;;;;276.17;130.90;;;2.90;99.90;;;;;;10130774;29;20150;-88
2021/12/06 00:27:28;;;;;;;188.27;97.53;;;2.90;99.90;;;;;;10113336;29;20523;-87
2021/12/06 00:32:28;;;;;;;197.60;100.13;;;2.90;99.90;;;;;;10131112;29;20021;-88
2021/12/06 00:37:33;;;;;;;220.87;106.40;;;2.90;99.90;;;;;;10112267;29;20492;-88
2021/12/06 00:42:35;;;;;;;207.40;100.27;;;2.90;99.90;;;;;;10112991;29;20048;-88
2021/12/06 00:47:36;;;;;;;190.63;97.67;;;2.90;99.90;;;;;;10112505;29;20055;-88
2021/12/06 00:52:37;;;;;;;190.03;97.97;;;2.90;99.90;;;;;;10113188;29;20484;-88
2021/12/06 00:57:38;;;;;;;215.70;105.97;;;2.90;99.90;;;;;;10130574;29;20052;-87
2021/12/06 01:02:39;;;;;;;202.87;101.17;;;3.00;99.90;;;;;;10112462;29;20035;-88
2021/12/06 01:07:41;;;;;;;196.00;93.70;;;3.00;99.90;;;;;;10129058;29;20068;-88
2021/12/06 01:12:41;;;;;;;176.70;86.93;;;3.00;99.90;;;;;;10128629;29;20488;-88
2021/12/06 01:17:42;;;;;;;175.93;87.40;;;3.00;99.90;;;;;;10112245;29;20035;-87
2021/12/06 01:22:56;;;;;;;227.90;112.43;;;2.90;99.90;;;;;;10128895;29;20036;-88
2021/12/06 01:33:27;;;;;;;139.17;54.23;;;2.90;99.90;;;;;;10124713;29;20396;-87
2021/12/06 01:44:16;;;;;;;124.33;49.97;;;2.90;99.90;;;;;;10128347;29;20040;-88
2021/12/06 01:49:20;;;;;;;158.02;52.05;;;2.80;99.90;;;;;;10123180;29;20040;-87
2021/12/06 01:54:21;;;;;;;157.20;50.40;;;2.80;99.90;;;;;;10127597;29;20384;-88
2021/12/06 01:59:23;;;;;;;146.23;47.23;;;2.70;99.90;;;;;;10128674;29;20539;-87
2021/12/06 02:04:28;;;;;;;129.90;41.03;;;2.70;99.90;;;;;;10110701;29;20458;-87
2021/12/06 02:09:30;;;;;;;158.87;47.00;;;2.70;99.90;;;;;;10128842;29;20032;-88
2021/12/06 02:14:45;;;;;;;151.77;48.07;;;2.60;99.90;;;;;;10127720;29;20031;-88
2021/12/06 02:19:52;;;;;;;184.67;48.17;;;2.60;99.90;;;;;;10129012;29;20028;-88
2021/12/06 02:24:54;;;;;;;125.17;41.63;;;2.60;99.90;;;;;;10129545;29;20084;-88
2021/12/06 02:29:58;;;;;;;102.10;31.33;;;2.50;99.90;;;;;;10134757;29;20036;-88
2021/12/06 02:34:59;;;;;;;94.77;28.87;;;2.50;99.90;;;;;;10104022;29;20150;-88
2021/12/06 02:40:06;;;;;;;94.43;27.13;;;2.40;99.90;;;;;;10118054;29;20035;-88
2021/12/06 02:45:09;;;;;;;90.80;29.40;;;2.30;99.90;;;;;;10134270;29;20024;-88
2021/12/06 02:50:11;;;;;;;96.40;27.07;;;2.20;99.90;;;;;;10133294;29;20775;-87
2021/12/06 02:55:29;;;;;;;99.63;26.03;;;2.20;99.90;;;;;;10133855;29;20028;-88
2021/12/06 03:00:31;;;;;;;87.27;27.90;;;2.20;99.90;;;;;;10122055;29;20054;-87
2021/12/06 03:05:32;;;;;;;79.23;25.33;;;2.20;99.90;;;;;;10133953;29;20029;-87
2021/12/06 03:10:33;;;;;;;79.57;26.27;;;2.20;99.90;;;;;;10133876;29;20033;-87
2021/12/06 03:15:34;;;;;;;96.63;30.00;;;2.20;99.90;;;;;;10133075;29;20039;-88
2021/12/06 03:20:34;;;;;;;101.47;29.57;;;2.20;99.90;;;;;;10134350;29;20119;-88
2021/12/06 03:25:35;;;;;;;77.17;25.23;;;2.20;99.90;;;;;;10115640;29;20128;-87
2021/12/06 03:30:36;;;;;;;93.73;27.67;;;2.20;99.90;;;;;;10132236;29;20032;-88
2021/12/06 03:35:37;;;;;;;110.03;30.80;;;2.10;99.90;;;;;;10132502;29;20133;-88
2021/12/06 03:40:38;;;;;;;102.57;28.97;;;2.00;99.90;;;;;;10132466;29;20522;-88
2021/12/06 03:45:38;;;;;;;115.00;30.00;;;1.90;99.90;;;;;;10115264;29;20046;-88
2021/12/06 03:50:39;;;;;;;110.57;27.80;;;1.90;99.90;;;;;;10115555;29;20068;-88
2021/12/06 03:55:40;;;;;;;100.00;28.87;;;1.80;99.90;;;;;;10132152;29;20100;-88
2021/12/06 04:00:41;;;;;;;91.10;27.20;;;1.80;99.90;;;;;;10127359;29;20123;-88
2021/12/06 04:05:42;;;;;;;104.53;29.47;;;1.70;99.90;;;;;;10113915;29;20043;-88
2021/12/06 04:10:43;;;;;;;95.20;26.93;;;1.80;99.90;;;;;;10114649;29;20027;-86
2021/12/06 04:15:44;;;;;;;119.70;30.87;;;1.80;99.90;;;;;;10113638;29;20075;-88
2021/12/06 04:20:48;;;;;;;93.20;25.47;;;1.80;99.90;;;;;;10131241;29;20095;-90
2021/12/06 04:25:49;;;;;;;105.93;23.77;;;1.80;99.90;;;;;;10113779;29;20071;-88
2021/12/06 04:30:50;;;;;;;76.67;24.40;;;1.80;99.90;;;;;;10130144;29;20659;-91
2021/12/06 04:35:51;;;;;;;60.17;19.97;;;1.80;99.90;;;;;;10113701;29;20033;-89
2021/12/06 04:40:51;;;;;;;97.43;24.03;;;1.90;99.90;;;;;;10129581;29;20495;-85
2021/12/06 04:45:52;;;;;;;62.30;20.60;;;1.90;99.90;;;;;;10112877;29;20076;-87
2021/12/06 04:50:53;;;;;;;61.10;21.90;;;1.90;99.90;;;;;;10130361;29;20040;-87
2021/12/06 04:56:14;;;;;;;50.77;18.93;;;1.80;99.90;;;;;;10113666;29;20056;-89
2021/12/06 05:01:20;;;;;;;42.53;16.37;;;1.80;99.90;;;;;;10118165;29;20048;-87
2021/12/06 05:06:26;;;;;;;35.63;16.55;;;1.80;99.90;;;;;;10130541;29;20047;-87
2021/12/06 05:11:29;;;;;;;38.07;15.67;;;1.80;99.90;;;;;;10129100;29;20051;-92
2021/12/06 05:16:35;;;;;;;39.23;16.33;;;1.80;99.90;;;;;;10129555;29;20059;-89
2021/12/06 05:21:36;;;;;;;34.83;15.40;;;1.80;99.90;;;;;;10125985;29;20033;-86
2021/12/06 05:26:37;;;;;;;38.87;16.90;;;1.70;99.90;;;;;;10120495;29;20045;-85
2021/12/06 05:31:40;;;;;;;33.90;14.90;;;1.60;99.90;;;;;;10108858;29;20021;-86
2021/12/06 05:36:41;;;;;;;34.87;15.30;;;1.60;99.90;;;;;;10126371;29;20017;-85
2021/12/06 05:41:42;;;;;;;32.63;15.53;;;1.60;99.90;;;;;;10103780;29;20040;-85
2021/12/06 05:46:43;;;;;;;39.97;16.73;;;1.60;99.90;;;;;;10128433;29;20350;-85
2021/12/06 05:51:43;;;;;;;36.77;16.57;;;1.50;99.90;;;;;;10120250;29;20196;-84
2021/12/06 05:56:45;;;;;;;40.50;17.57;;;1.50;99.90;;;;;;10120329;29;20543;-86
2021/12/06 06:01:48;;;;;;;36.70;17.57;;;1.60;99.90;;;;;;10127288;29;20053;-84
2021/12/06 06:06:49;;;;;;;39.80;18.40;;;1.60;99.90;;;;;;10135346;29;20045;-85
2021/12/06 06:11:51;;;;;;;39.77;18.20;;;1.60;99.90;;;;;;10131057;29;20524;-84
2021/12/06 06:16:53;;;;;;;40.43;17.73;;;1.70;99.90;;;;;;10135470;29;20029;-84
2021/12/06 06:21:54;;;;;;;36.83;17.33;;;1.60;99.90;;;;;;10115147;29;20021;-84
2021/12/06 06:26:54;;;;;;;40.57;19.73;;;1.70;99.90;;;;;;10135014;29;20032;-86
2021/12/06 06:31:55;;;;;;;49.80;19.97;;;1.70;99.90;;;;;;10128780;29;20040;-85
2021/12/06 06:36:56;;;;;;;56.80;22.67;;;1.60;99.90;;;;;;10135167;29;20079;-84
2021/12/06 06:41:57;;;;;;;54.73;22.37;;;1.60;99.90;;;;;;10133984;29;20114;-84
2021/12/06 06:46:58;;;;;;;56.37;23.40;;;1.50;99.90;;;;;;10135382;29;20160;-85
2021/12/06 06:52:00;;;;;;;62.93;25.60;;;1.50;99.90;;;;;;10134468;29;20037;-84
2021/12/06 06:57:02;;;;;;;66.77;27.43;;;1.50;99.90;;;;;;10134049;29;20460;-84
2021/12/06 07:02:03;;;;;;;62.90;26.50;;;1.50;99.90;;;;;;10134393;29;20025;-84
2021/12/06 07:07:04;;;;;;;64.17;28.73;;;1.40;99.90;;;;;;10116365;29;20127;-85
2021/12/06 07:12:12;;;;;;;67.23;28.33;;;1.50;99.90;;;;;;10133205;29;20071;-84
2021/12/06 07:17:13;;;;;;;86.00;32.60;;;1.50;99.90;;;;;;10133271;29;20032;-84
2021/12/06 07:22:14;;;;;;;75.37;30.13;;;1.50;99.90;;;;;;10133914;29;20029;-86
2021/12/06 07:27:15;;;;;;;76.47;31.87;;;1.40;99.90;;;;;;10123680;29;20036;-86
2021/12/06 07:32:16;;;;;;;73.40;31.23;;;1.40;99.90;;;;;;10130318;29;20024;-84
2021/12/06 07:37:17;;;;;;;68.57;30.00;;;1.50;99.90;;;;;;10132984;29;20040;-85
2021/12/06 07:42:18;;;;;;;74.90;29.73;;;1.50;99.90;;;;;;10132408;29;20032;-86
2021/12/06 07:47:19;;;;;;;86.27;32.80;;;1.40;99.90;;;;;;10125578;29;20048;-84
2021/12/06 07:52:20;;;;;;;85.60;34.70;;;1.50;99.90;;;;;;10114937;29;20028;-84
2021/12/06 07:57:21;;;;;;;75.43;30.03;;;1.50;99.90;;;;;;10129866;29;20377;-85
2021/12/06 08:02:22;;;;;;;58.43;28.03;;;1.50;99.90;;;;;;10132985;29;20032;-84
2021/12/06 08:07:23;;;;;;;69.00;27.87;;;1.50;99.90;;;;;;10106958;29;20041;-84
2021/12/06 08:12:24;;;;;;;59.77;26.23;;;1.60;99.90;;;;;;10131673;29;20032;-86
2021/12/06 08:17:25;;;;;;;60.40;26.93;;;1.60;99.90;;;;;;10131288;29;20032;-86
2021/12/06 08:22:26;;;;;;;59.40;26.90;;;1.60;99.90;;;;;;10128519;29;20028;-85
2021/12/06 08:27:27;;;;;;;66.50;26.77;;;1.60;99.90;;;;;;10113725;29;20388;-85
2021/12/06 08:38:35;;;;;;;51.60;24.20;;;1.60;99.90;;;;;;10450131;23;20055;-85
2021/12/06 08:43:38;;;;;;;57.47;24.07;;;1.50;99.90;;;;;;10198021;29;20031;-85
2021/12/06 09:00:41;;;;;;;54.27;26.67;;;1.40;99.90;;;;;;10230073;29;20553;-85
2021/12/06 09:06:24;;;;;;;65.97;26.90;;;1.50;99.90;;;;;;10241094;29;20031;-84
2021/12/06 09:11:49;;;;;;;69.97;28.90;;;1.60;99.90;;;;;;10243919;29;20093;-85
2021/12/06 09:16:50;;;;;;;67.87;27.33;;;1.60;99.90;;;;;;10207124;29;20035;-87
2021/12/06 09:21:50;;;;;;;61.60;28.23;;;1.60;99.90;;;;;;10218258;29;20027;-87
2021/12/06 09:26:52;;;;;;;54.47;26.10;;;1.70;99.90;;;;;;10223670;29;20040;-85
2021/12/06 09:31:57;;;;;;;59.93;25.23;;;1.70;99.90;;;;;;10228641;28;20472;-86
2021/12/06 09:36:59;;;;;;;58.73;26.63;;;1.70;99.90;;;;;;10220669;29;20084;-87
2021/12/06 09:42:01;;;;;;;62.60;27.03;;;1.60;99.90;;;;;;10208259;29;20126;-85
2021/12/06 09:47:03;;;;;;;60.07;26.43;;;1.50;99.90;;;;;;10205506;29;20036;-86
2021/12/06 09:52:05;;;;;;;71.63;28.73;;;1.50;99.90;;;;;;10205496;29;20695;-85
2021/12/06 09:57:08;;;;;;;68.90;30.23;;;1.40;99.90;;;;;;10207566;29;20460;-87
2021/12/06 10:02:13;;;;;;;79.27;29.90;;;1.40;99.90;;;;;;10206201;29;20027;-85
2021/12/06 10:07:14;;;;;;;72.23;30.50;;;1.30;99.90;;;;;;10217903;29;20039;-85
2021/12/06 10:12:17;;;;;;;82.37;32.23;;;1.30;99.90;;;;;;10223638;28;20159;-85
2021/12/06 10:17:19;;;;;;;77.23;29.63;;;1.20;99.90;;;;;;10206824;29;20066;-86
2021/12/06 10:22:21;;;;;;;81.10;30.23;;;1.10;99.90;;;;;;10206124;29;20036;-87
2021/12/06 10:27:23;;;;;;;87.73;34.07;;;1.10;99.90;;;;;;10207017;29;20031;-86
2021/12/06 10:32:27;;;;;;;84.47;32.40;;;1.10;99.90;;;;;;10205092;29;20031;-87
2021/12/06 10:37:36;;;;;;;85.83;33.77;;;1.10;99.90;;;;;;10206304;29;20055;-87
2021/12/06 10:42:42;;;;;;;85.70;32.30;;;1.10;99.90;;;;;;10235365;29;20023;-87
2021/12/06 10:48:02;;;;;;;84.77;30.77;;;1.20;99.90;;;;;;10248225;28;20117;-86
2021/12/06 10:53:04;;;;;;;75.43;31.70;;;1.20;99.90;;;;;;10225317;28;20639;-86
2021/12/06 10:58:08;;;;;;;78.03;31.73;;;1.10;99.90;;;;;;10220280;28;20054;-86
2021/12/06 11:03:27;;;;;;;73.37;31.83;;;1.10;99.90;;;;;;10210644;28;20107;-87
2021/12/06 11:08:29;;;;;;;66.97;28.53;;;1.10;99.90;;;;;;10212386;29;20043;-86
2021/12/06 11:13:36;;;;;;;69.90;27.63;;;1.10;99.90;;;;;;10211352;29;20028;-88
2021/12/06 11:19:03;;;;;;;68.43;29.50;;;1.10;99.90;;;;;;10211827;29;20028;-86
2021/12/06 11:24:18;;;;;;;68.90;27.70;;;1.20;99.90;;;;;;10212236;28;20423;-87
2021/12/06 11:29:31;;;;;;;69.30;30.17;;;1.10;99.90;;;;;;10210124;28;20122;-88
2021/12/06 11:34:34;;;;;;;63.73;28.33;;;1.20;99.90;;;;;;10223745;29;20023;-85
2021/12/06 11:39:35;;;;;;;64.70;26.20;;;1.20;99.90;;;;;;10242172;29;20054;-85
2021/12/06 11:44:42;;;;;;;57.83;25.33;;;1.30;99.90;;;;;;10212022;29;20119;-85
2021/12/06 11:49:47;;;;;;;62.17;26.63;;;1.30;99.90;;;;;;10211067;29;20114;-86
2021/12/06 11:55:03;;;;;;;55.22;25.05;;;1.30;99.90;;;;;;10210035;29;20360;-85
2021/12/06 12:00:22;;;;;;;58.77;24.00;;;1.40;99.90;;;;;;10210997;28;20079;-87
2021/12/06 12:05:39;;;;;;;54.87;23.60;;;1.50;99.90;;;;;;10210539;29;20028;-86
2021/12/06 12:10:54;;;;;;;52.60;22.33;;;1.50;99.90;;;;;;10240207;29;20031;-86
2021/12/06 12:16:03;;;;;;;47.42;22.98;;;1.50;99.90;;;;;;10248785;29;20526;-86
2021/12/06 12:21:06;;;;;;;49.47;21.50;;;1.50;99.90;;;;;;10249458;28;20027;-85
2021/12/06 12:26:12;;;;;;;47.40;20.27;;;1.50;99.90;;;;;;10247767;29;20059;-89
2021/12/06 12:31:14;;;;;;;46.17;21.60;;;1.40;99.90;;;;;;10232684;28;20050;-85
2021/12/06 12:36:18;;;;;;;44.47;19.50;;;1.40;99.90;;;;;;10248950;28;20055;-83
2021/12/06 12:41:20;;;;;;;48.60;19.40;;;1.30;99.90;;;;;;10224691;28;20019;-86
2021/12/06 12:46:32;;;;;;;47.00;18.37;;;1.30;99.90;;;;;;10209186;29;20027;-85
2021/12/06 12:51:37;;;;;;;41.97;19.67;;;1.20;99.90;;;;;;10227513;29;20028;-85
2021/12/06 13:02:41;;;;;;;44.27;18.10;;;1.00;99.90;;;;;;10239002;29;20042;-85
2021/12/06 13:07:51;;;;;;;49.50;20.03;;;1.00;99.90;;;;;;10244610;28;20027;-85
2021/12/06 13:24:18;;;;;;;45.27;18.87;;;0.90;99.90;;;;;;10206779;28;20451;-85
2021/12/06 13:29:23;;;;;;;41.00;18.67;;;0.90;99.90;;;;;;10244388;29;20364;-86
2021/12/06 13:34:30;;;;;;;46.50;19.30;;;0.90;99.90;;;;;;10213033;28;20107;-84
2021/12/06 13:39:38;;;;;;;39.63;18.17;;;0.90;99.90;;;;;;10207983;29;20114;-85
2021/12/06 13:44:38;;;;;;;49.17;20.97;;;0.90;99.90;;;;;;10230517;28;20070;-86
2021/12/06 13:50:17;;;;;;;51.47;20.70;;;0.90;99.90;;;;;;10221232;28;20531;-85
2021/12/06 13:55:28;;;;;;;45.47;20.17;;;0.90;99.90;;;;;;10207123;29;20107;-86
2021/12/06 14:00:43;;;;;;;43.33;19.03;;;0.90;99.90;;;;;;10207432;29;20024;-85
2021/12/06 14:05:51;;;;;;;46.03;19.53;;;0.90;99.90;;;;;;10221336;29;20039;-86
2021/12/06 14:10:54;;;;;;;49.40;20.63;;;0.90;99.90;;;;;;10246988;28;20074;-85
2021/12/06 14:15:56;;;;;;;49.40;22.17;;;0.90;99.90;;;;;;10226291;28;20026;-86
2021/12/06 14:21:00;;;;;;;52.07;22.40;;;0.90;99.90;;;;;;10216573;29;20020;-85
2021/12/06 14:26:04;;;;;;;43.90;20.17;;;0.90;99.90;;;;;;10213156;29;20241;-84
2021/12/06 14:31:06;;;;;;;45.87;21.23;;;0.90;99.90;;;;;;10227562;29;20033;-85
2021/12/06 14:48:10;;;;;;;47.22;20.92;;;0.80;99.90;;;;;;10228685;29;20083;-85
2021/12/06 14:58:46;;;;;;;49.63;21.37;;;0.70;99.90;;;;;;10227481;29;20109;-87
2021/12/06 15:04:26;;;;;;;56.23;21.63;;;0.70;99.90;;;;;;10229479;28;20067;-87
2021/12/06 15:09:27;;;;;;;51.23;20.83;;;0.60;99.90;;;;;;10211501;28;20050;-86
2021/12/06 15:14:29;;;;;;;50.13;19.93;;;0.70;99.90;;;;;;10231985;29;20034;-85
2021/12/06 15:19:30;;;;;;;45.87;18.77;;;0.70;99.90;;;;;;10227300;28;20034;-87
2021/12/06 15:24:31;;;;;;;42.87;18.83;;;0.70;99.90;;;;;;10246539;29;20035;-87
2021/12/06 15:29:37;;;;;;;44.50;18.77;;;0.70;99.90;;;;;;10233588;29;20043;-85
2021/12/06 15:34:41;;;;;;;40.10;17.60;;;0.70;99.90;;;;;;10211574;29;20026;-87
2021/12/06 15:39:45;;;;;;;46.27;20.40;;;0.70;99.90;;;;;;10221811;28;20114;-87
2021/12/06 15:44:49;;;;;;;45.47;19.53;;;0.70;99.90;;;;;;10222937;28;20020;-88
2021/12/06 15:49:54;;;;;;;53.40;21.67;;;0.70;99.90;;;;;;10243463;28;20566;-88
2021/12/06 15:55:07;;;;;;;52.40;22.75;;;0.70;99.90;;;;;;10220534;29;20039;-87
2021/12/06 16:00:14;;;;;;;51.53;19.47;;;0.70;99.90;;;;;;10210719;28;20118;-87
2021/12/06 16:05:20;;;;;;;43.07;19.27;;;0.60;99.90;;;;;;10210535;29;20063;-87
2021/12/06 16:10:22;;;;;;;;;;;0.70;99.90;;;;;;10217817;29;20031;-88
2021/12/06 16:15:29;;;;;;;40.30;17.83;;;0.60;99.90;;;;;;10239818;28;19906;-88
2021/12/06 16:20:32;;;;;;;49.10;20.47;;;0.60;99.90;;;;;;10249814;28;20027;-88
2021/12/06 16:25:33;;;;;;;47.37;19.53;;;0.60;99.90;;;;;;10245968;28;20031;-83
2021/12/06 16:30:34;;;;;;;47.43;20.23;;;0.60;99.90;;;;;;10209675;29;20034;-88
2021/12/06 16:35:39;;;;;;;51.90;21.97;;;0.60;99.90;;;;;;10222424;28;20035;-86
2021/12/06 16:40:40;;;;;;;49.27;20.10;;;0.60;99.90;;;;;;10231086;28;20391;-87
2021/12/06 16:45:41;;;;;;;48.67;20.30;;;0.60;99.90;;;;;;10219322;28;20048;-85
2021/12/06 16:50:47;;;;;;;51.40;21.33;;;0.60;99.90;;;;;;10218129;29;20024;-83
2021/12/06 16:55:51;;;;;;;54.57;21.40;;;0.70;99.90;;;;;;10228488;28;20055;-83
2021/12/06 17:00:54;;;;;;;57.73;22.00;;;0.60;99.90;;;;;;10223197;29;20028;-83
2021/12/06 17:06:21;;;;;;;49.07;20.30;;;0.60;99.90;;;;;;10235366;28;20062;-83
2021/12/06 17:11:25;;;;;;;48.57;20.03;;;0.60;99.90;;;;;;10210669;28;20372;-83
2021/12/06 17:16:33;;;;;;;57.07;21.03;;;0.60;99.90;;;;;;10210882;28;20031;-86
2021/12/06 17:21:34;;;;;;;54.10;21.83;;;0.60;99.90;;;;;;10215475;28;20121;-85
2021/12/06 17:26:40;;;;;;;54.60;20.93;;;0.70;99.90;;;;;;10222599;28;20530;-84
2021/12/06 17:31:44;;;;;;;58.92;20.25;;;0.70;99.90;;;;;;10215998;28;20372;-85
2021/12/06 17:36:51;;;;;;;54.87;21.00;;;0.60;99.90;;;;;;10224445;28;20059;-85
2021/12/06 17:41:53;;;;;;;52.13;24.60;;;0.60;99.90;;;;;;10213479;29;20023;-84
2021/12/06 17:46:56;;;;;;;60.40;24.10;;;0.60;99.90;;;;;;10217314;29;20383;-84
2021/12/06 17:51:57;;;;;;;57.93;21.13;;;0.60;99.90;;;;;;10217314;28;20483;-84
2021/12/06 17:57:00;;;;;;;59.73;23.97;;;0.60;99.90;;;;;;10226964;28;20106;-84
2021/12/06 18:02:06;;;;;;;59.77;23.00;;;0.60;99.90;;;;;;10219111;28;20075;-84
2021/12/06 18:07:09;;;;;;;54.30;21.97;;;0.60;99.90;;;;;;10214450;28;20171;-84
2021/12/06 18:12:12;;;;;;;60.83;24.53;;;0.60;99.90;;;;;;10234663;29;20035;-85
2021/12/06 18:17:13;;;;;;;64.27;25.27;;;0.60;99.90;;;;;;10232008;28;20118;-84
2021/12/06 18:22:14;;;;;;;66.03;24.37;;;0.70;99.90;;;;;;10219918;28;20031;-84
2021/12/06 18:27:18;;;;;;;58.37;22.37;;;0.70;99.90;;;;;;10223887;28;20038;-84
2021/12/06 18:32:20;;;;;;;57.63;22.50;;;0.70;99.90;;;;;;10219027;29;20054;-84
2021/12/06 18:37:21;;;;;;;58.60;22.83;;;0.70;99.90;;;;;;10241336;28;20043;-83
2021/12/06 18:42:27;;;;;;;68.67;26.40;;;0.70;99.90;;;;;;10228487;29;20035;-84
2021/12/06 18:47:33;;;;;;;56.97;22.70;;;0.70;99.90;;;;;;10215162;29;20040;-83
2021/12/06 18:52:33;;;;;;;61.75;24.60;;;0.70;99.90;;;;;;10219939;28;20748;-84
2021/12/06 18:57:35;;;;;;;55.93;22.40;;;0.60;99.90;;;;;;10222671;29;20031;-86
2021/12/06 19:02:35;;;;;;;58.63;22.40;;;0.60;99.90;;;;;;10223552;28;20553;-84
2021/12/06 19:07:37;;;;;;;51.03;19.37;;;0.60;99.90;;;;;;10219251;29;20038;-88
2021/12/06 19:12:38;;;;;;;49.57;18.77;;;0.60;99.90;;;;;;10226400;28;20158;-86
2021/12/06 19:17:40;;;;;;;49.03;19.67;;;0.50;99.90;;;;;;10219528;29;20144;-86
2021/12/06 19:22:41;;;;;;;58.30;24.20;;;0.50;99.90;;;;;;10241579;29;20027;-86
2021/12/06 19:27:45;;;;;;;55.90;20.53;;;0.50;99.90;;;;;;10214354;28;20147;-87
2021/12/06 19:32:49;;;;;;;54.17;20.67;;;0.60;99.90;;;;;;10219937;28;20041;-86
2021/12/06 19:37:50;;;;;;;51.40;20.00;;;0.50;99.90;;;;;;10220610;29;20168;-86
2021/12/06 19:42:51;;;;;;;56.77;21.53;;;0.60;99.90;;;;;;10230157;29;20027;-86
2021/12/06 19:47:52;;;;;;;55.43;21.00;;;0.50;99.90;;;;;;10216748;29;20031;-87
2021/12/06 19:52:52;;;;;;;63.00;21.87;;;0.50;99.90;;;;;;10212512;29;20032;-87
2021/12/06 19:57:53;;;;;;;58.47;22.73;;;0.50;99.90;;;;;;10218318;28;20067;-86
2021/12/06 20:02:54;;;;;;;52.67;21.63;;;0.50;99.90;;;;;;10242221;29;20035;-86
2021/12/06 20:07:55;;;;;;;59.10;20.60;;;0.50;99.90;;;;;;10217363;28;20043;-87
2021/12/06 20:12:56;;;;;;;61.97;24.97;;;0.50;99.90;;;;;;10228194;28;20036;-88
2021/12/06 20:17:57;;;;;;;63.10;22.53;;;0.60;99.90;;;;;;10226260;28;20027;-87
2021/12/06 20:22:57;;;;;;;52.00;18.97;;;0.60;99.90;;;;;;10229583;29;20024;-86
2021/12/06 20:27:58;;;;;;;58.77;21.27;;;0.60;99.90;;;;;;10214319;29;20038;-86
2021/12/06 20:33:00;;;;;;;66.73;23.40;;;0.60;99.90;;;;;;10213576;29;20382;-86
2021/12/06 20:38:01;;;;;;;64.90;24.83;;;0.60;99.90;;;;;;10214175;29;20044;-87
2021/12/06 20:43:02;;;;;;;64.60;22.13;;;0.60;99.90;;;;;;10213556;29;20364;-87
2021/12/06 20:48:05;;;;;;;61.97;23.03;;;0.50;99.90;;;;;;10209826;29;20126;-85
2021/12/06 20:53:06;;;;;;;61.53;23.87;;;0.50;99.90;;;;;;10224370;29;20055;-85
2021/12/06 20:58:07;;;;;;;66.93;25.37;;;0.50;99.90;;;;;;10209004;29;20022;-85
2021/12/06 21:03:12;;;;;;;62.83;23.43;;;0.50;99.90;;;;;;10228924;29;20555;-85
2021/12/06 21:08:13;;;;;;;66.83;24.93;;;0.60;99.90;;;;;;10210154;29;20036;-85
2021/12/06 21:18:18;;;;;;;69.70;24.17;;;0.50;99.90;;;;;;10208348;29;20034;-85
2021/12/06 21:23:19;;;;;;;61.37;22.63;;;0.50;99.90;;;;;;10230086;29;20030;-86
2021/12/06 21:28:20;;;;;;;61.70;22.87;;;0.60;99.90;;;;;;10220482;29;20058;-86
2021/12/06 21:33:22;;;;;;;70.03;23.77;;;0.50;99.90;;;;;;10226733;28;20528;-86
2021/12/06 21:38:22;;;;;;;64.93;22.47;;;0.50;99.90;;;;;;10234852;28;20039;-84
2021/12/06 21:43:23;;;;;;;65.10;23.13;;;0.50;99.90;;;;;;10240195;28;20038;-86
2021/12/06 21:48:24;;;;;;;66.83;21.77;;;0.50;99.90;;;;;;10206882;29;20510;-85
2021/12/06 21:53:26;;;;;;;64.67;23.23;;;0.50;99.90;;;;;;10207723;29;20098;-86
2021/12/06 21:58:26;;;;;;;74.43;24.77;;;0.50;99.90;;;;;;10229704;29;20034;-85
2021/12/06 22:03:36;;;;;;;60.07;23.13;;;0.50;99.90;;;;;;10216018;29;20479;-85
2021/12/06 22:08:36;;;;;;;69.37;24.43;;;0.60;99.90;;;;;;10212893;29;20082;-86
2021/12/06 22:13:37;;;;;;;64.53;22.93;;;0.60;99.90;;;;;;10238692;29;20038;-86
2021/12/06 22:18:38;;;;;;;67.00;23.50;;;0.60;99.90;;;;;;10215445;29;20456;-86
2021/12/06 22:23:40;;;;;;;63.20;22.30;;;0.60;99.90;;;;;;10218051;29;20050;-85
2021/12/06 22:28:41;;;;;;;54.67;20.63;;;0.60;99.90;;;;;;10241901;29;20523;-85
2021/12/06 22:33:43;;;;;;;55.47;20.17;;;0.60;99.90;;;;;;10213064;29;20106;-85
2021/12/06 22:38:44;;;;;;;51.23;18.40;;;0.60;99.90;;;;;;10210850;29;20039;-86
2021/12/06 22:43:44;;;;;;;54.07;20.00;;;0.60;99.90;;;;;;10248622;28;20382;-85
2021/12/06 22:48:45;;;;;;;54.03;19.93;;;0.60;99.90;;;;;;10222277;29;20028;-86
2021/12/06 22:53:47;;;;;;;51.73;19.93;;;0.50;99.90;;;;;;10219877;29;20682;-86
2021/12/06 22:58:48;;;;;;;54.23;19.57;;;0.50;99.90;;;;;;10214076;28;20032;-85
2021/12/06 23:03:52;;;;;;;60.87;21.73;;;0.50;99.90;;;;;;10212655;29;20027;-86
2021/12/06 23:08:54;;;;;;;61.63;21.70;;;0.50;99.90;;;;;;10230451;29;20036;-85
2021/12/06 23:13:55;;;;;;;56.50;22.13;;;0.50;99.90;;;;;;10243594;28;20432;-86
2021/12/06 23:18:56;;;;;;;57.97;21.07;;;0.50;99.90;;;;;;10216430;29;20031;-85
2021/12/06 23:23:57;;;;;;;65.40;23.00;;;0.50;99.90;;;;;;10217766;29;20032;-86
2021/12/06 23:28:58;;;;;;;55.10;21.57;;;0.50;99.90;;;;;;10212048;29;20027;-85
2021/12/06 23:33:59;;;;;;;57.57;21.47;;;0.50;99.90;;;;;;10227171;29;20027;-85
2021/12/06 23:39:27;;;;;;;57.67;22.07;;;0.40;99.90;;;;;;10250320;28;20046;-86
2021/12/06 23:49:43;;;;;;;62.07;22.33;;;0.40;99.90;;;;;;10235916;29;20043;-86
2021/12/06 23:54:45;;;;;;;60.73;22.80;;;0.40;99.90;;;;;;10228454;28;20580;-86
2021/12/06 23:59:46;;;;;;;60.77;24.67;;;0.30;99.90;;;;;;10249159;29;20114;-86
